createdAt,value
2023-01-10T00:01:58.878Z,14.65
2023-01-10T00:04:28.592Z,14.07
2023-01-10T00:06:56.505Z,13.63
2023-01-10T00:09:24.332Z,14.05
2023-01-10T00:12:09.617Z,14.13
2023-01-10T00:14:37.439Z,11.13
2023-01-10T00:17:06.643Z,11.35
2023-01-10T00:19:34.485Z,10.70
2023-01-10T00:22:18.598Z,12.52
2023-01-10T00:24:46.472Z,13.05
2023-01-10T00:27:17.761Z,11.80
2023-01-10T00:29:46.092Z,12.63
2023-01-10T00:32:15.305Z,12.05
2023-01-10T00:34:43.222Z,17.35
2023-01-10T00:37:11.045Z,13.07
2023-01-10T00:39:38.963Z,11.95
2023-01-10T00:42:24.351Z,12.35
2023-01-10T00:44:52.517Z,14.90
2023-01-10T00:47:21.696Z,14.25
2023-01-10T00:49:49.594Z,11.38
2023-01-10T00:52:17.480Z,20.70
2023-01-10T00:54:45.408Z,14.05
2023-01-10T00:57:13.261Z,14.65
2023-01-10T00:59:41.086Z,16.20
2023-01-10T01:02:09.058Z,11.45
2023-01-10T01:04:38.284Z,12.73
2023-01-10T01:07:06.170Z,13.00
2023-01-10T01:09:34.055Z,14.68
2023-01-10T01:12:02.370Z,14.63
2023-01-10T01:14:30.232Z,12.60
2023-01-10T01:16:58.060Z,12.18
2023-01-10T01:19:26.050Z,10.30
2023-01-10T01:21:55.243Z,13.65
2023-01-10T01:24:24.321Z,11.75
2023-01-10T01:26:52.181Z,13.23
2023-01-10T01:29:20.069Z,12.77
2023-01-10T01:31:47.935Z,12.07
2023-01-10T01:34:15.868Z,11.68
2023-01-10T01:36:43.692Z,12.68
2023-01-10T01:39:13.027Z,12.05
2023-01-10T01:42:00.204Z,12.25
2023-01-10T01:44:31.272Z,10.65
2023-01-10T01:47:03.331Z,12.95
2023-01-10T01:49:31.173Z,14.00
2023-01-10T01:52:01.293Z,12.65
2023-01-10T01:54:30.529Z,12.68
2023-01-10T01:56:59.910Z,12.55
2023-01-10T01:59:29.012Z,12.73
2023-01-10T02:01:58.931Z,12.23
2023-01-10T02:04:29.390Z,11.95
2023-01-10T02:06:57.825Z,12.98
2023-01-10T02:09:26.879Z,11.95
2023-01-10T02:11:56.863Z,13.15
2023-01-10T02:14:25.068Z,11.18
2023-01-10T02:16:53.544Z,11.32
2023-01-10T02:19:25.604Z,11.60
2023-01-10T02:22:19.051Z,10.65
2023-01-10T02:25:12.076Z,13.07
2023-01-10T02:27:48.278Z,11.30
2023-01-10T02:30:56.126Z,11.60
2023-01-10T02:33:27.177Z,11.75
2023-01-10T02:36:04.972Z,11.90
2023-01-10T02:38:38.000Z,11.70
2023-01-10T02:41:10.646Z,11.55
2023-01-10T02:43:40.425Z,14.65
2023-01-10T02:46:09.795Z,11.57
2023-01-10T02:48:39.027Z,12.52
2023-01-10T02:51:10.936Z,15.02
2023-01-10T02:53:40.770Z,10.68
2023-01-10T02:56:40.646Z,11.82
2023-01-10T02:59:27.826Z,10.70
2023-01-10T03:01:58.021Z,14.13
2023-01-10T03:04:32.121Z,13.85
2023-01-10T03:07:04.324Z,12.88
2023-01-10T03:09:34.604Z,12.27
2023-01-10T03:12:04.811Z,13.48
2023-01-10T03:14:32.983Z,12.77
2023-01-10T03:17:04.773Z,10.65
2023-01-10T03:19:35.917Z,11.73
2023-01-10T03:22:03.989Z,11.43
2023-01-10T03:24:33.129Z,12.00
2023-01-10T03:27:04.702Z,11.90
2023-01-10T03:29:35.136Z,12.25
2023-01-10T03:32:05.415Z,10.75
2023-01-10T03:34:34.631Z,11.27
2023-01-10T03:37:05.141Z,10.48
2023-01-10T03:39:35.146Z,11.45
2023-01-10T03:42:06.937Z,13.43
2023-01-10T03:44:45.920Z,11.82
2023-01-10T03:47:17.796Z,12.07
2023-01-10T03:49:48.945Z,12.10
2023-01-10T03:52:17.756Z,13.10
2023-01-10T03:54:45.710Z,11.55
2023-01-10T03:57:18.448Z,10.88
2023-01-10T03:59:46.405Z,12.10
2023-01-10T04:02:14.263Z,12.25
2023-01-10T04:04:42.089Z,13.15
2023-01-10T04:07:11.300Z,13.02
2023-01-10T04:09:39.179Z,11.43
2023-01-10T04:12:07.323Z,12.25
2023-01-10T04:14:35.170Z,11.43
2023-01-10T04:17:03.014Z,13.20
2023-01-10T04:19:30.904Z,11.98
2023-01-10T04:21:58.788Z,12.25
2023-01-10T04:24:27.989Z,10.52
2023-01-10T04:26:55.836Z,9.98
2023-01-10T04:29:23.710Z,11.73
2023-01-10T04:31:51.678Z,11.45
2023-01-10T04:34:20.086Z,11.82
2023-01-10T04:36:49.917Z,11.00
2023-01-10T04:39:18.394Z,11.48
2023-01-10T04:41:47.589Z,10.98
2023-01-10T04:44:15.453Z,10.70
2023-01-10T04:46:43.284Z,10.40
2023-01-10T04:49:11.142Z,10.88
2023-01-10T04:51:39.009Z,10.95
2023-01-10T04:54:06.980Z,10.38
2023-01-10T04:56:34.929Z,11.02
2023-01-10T04:59:06.414Z,10.20
2023-01-10T05:01:35.382Z,11.20
2023-01-10T05:04:03.879Z,11.07
2023-01-10T05:06:31.718Z,10.38
2023-01-10T05:08:59.535Z,11.57
2023-01-10T05:11:27.476Z,10.23
2023-01-10T05:13:55.366Z,11.07
2023-01-10T05:16:25.413Z,11.70
2023-01-10T05:18:53.360Z,11.88
2023-01-10T05:21:21.239Z,10.73
2023-01-10T05:23:49.097Z,11.13
2023-01-10T05:26:17.813Z,10.15
2023-01-10T05:28:45.721Z,10.68
2023-01-10T05:31:14.696Z,12.23
2023-01-10T05:33:46.595Z,11.65
2023-01-10T05:36:14.468Z,11.23
2023-01-10T05:38:42.368Z,10.80
2023-01-10T05:41:10.274Z,9.45
2023-01-10T05:43:38.130Z,10.52
2023-01-10T05:46:06.238Z,10.95
2023-01-10T05:48:34.127Z,11.88
2023-01-10T05:51:03.686Z,11.32
2023-01-10T05:53:31.544Z,11.48
2023-01-10T05:56:00.160Z,11.38
2023-01-10T05:58:28.131Z,10.90
2023-01-10T06:00:56.439Z,10.82
2023-01-10T06:03:25.046Z,11.13
2023-01-10T06:05:53.100Z,11.35
2023-01-10T06:08:22.314Z,10.18
2023-01-10T06:10:50.256Z,12.15
2023-01-10T06:13:18.149Z,9.85
2023-01-10T06:15:46.013Z,15.07
2023-01-10T06:18:14.877Z,13.82
2023-01-10T06:20:43.161Z,12.80
2023-01-10T06:23:11.303Z,11.55
2023-01-10T06:25:41.880Z,17.67
2023-01-10T06:28:10.286Z,10.95
2023-01-10T06:30:38.166Z,12.65
2023-01-10T06:33:06.541Z,10.57
2023-01-10T06:35:34.714Z,29.60
2023-01-10T06:38:02.788Z,23.10
2023-01-10T06:40:30.701Z,42.50
2023-01-10T06:43:00.193Z,36.33
2023-01-10T06:45:28.075Z,41.35
2023-01-10T06:47:55.995Z,38.88
2023-01-10T06:50:23.856Z,34.03
2023-01-10T06:52:57.050Z,31.60
2023-01-10T06:55:24.975Z,40.08
2023-01-10T06:57:56.853Z,38.05
2023-01-10T07:00:27.394Z,41.40
2023-01-10T07:02:56.309Z,33.97
2023-01-10T07:05:24.444Z,25.30
2023-01-10T07:07:52.318Z,30.60
2023-01-10T07:13:14.634Z,38.67
2023-01-10T07:15:43.909Z,39.78
2023-01-10T07:18:12.853Z,43.78
2023-01-10T07:20:40.966Z,37.95
2023-01-10T07:23:08.792Z,32.33
2023-01-10T07:25:36.659Z,30.00
2023-01-10T07:28:06.152Z,30.67
2023-01-10T07:30:34.113Z,27.40
2023-01-10T07:33:03.996Z,26.50
2023-01-10T07:35:31.927Z,26.35
2023-01-10T07:38:00.212Z,22.65
2023-01-10T07:40:28.196Z,27.50
2023-01-10T07:42:57.949Z,23.98
2023-01-10T07:45:26.978Z,22.88
2023-01-10T07:47:57.544Z,22.67
2023-01-10T07:50:27.161Z,24.92
2023-01-10T07:52:55.101Z,21.50
2023-01-10T07:55:22.981Z,18.85
2023-01-10T07:57:50.955Z,19.75
2023-01-10T08:00:19.554Z,19.27
2023-01-10T08:02:47.583Z,21.58
2023-01-10T08:05:15.869Z,21.10
2023-01-10T08:07:45.264Z,19.98
2023-01-10T08:10:13.369Z,18.83
2023-01-10T08:12:41.258Z,17.15
2023-01-10T08:15:10.311Z,18.08
2023-01-10T08:17:38.283Z,17.05
2023-01-10T08:20:06.914Z,18.10
2023-01-10T08:22:35.271Z,16.48
2023-01-10T08:25:04.804Z,16.98
2023-01-10T08:27:32.713Z,16.67
2023-01-10T08:30:00.562Z,17.08
2023-01-10T08:32:28.448Z,13.95
2023-01-10T08:34:56.370Z,13.45
2023-01-10T08:37:24.443Z,15.05
2023-01-10T08:39:52.330Z,15.65
2023-01-10T08:42:21.556Z,12.65
2023-01-10T08:44:49.475Z,14.50
2023-01-10T08:47:17.372Z,15.77
2023-01-10T08:49:47.012Z,17.05
2023-01-10T08:52:14.893Z,17.85
2023-01-10T08:54:42.780Z,16.05
2023-01-10T08:57:10.687Z,15.98
2023-01-10T08:59:39.889Z,14.60
2023-01-10T09:02:13.044Z,13.40
2023-01-10T09:04:40.971Z,13.88
2023-01-10T09:07:08.819Z,14.73
2023-01-10T09:09:37.750Z,28.35
2023-01-10T09:12:26.270Z,34.72
2023-01-10T09:14:55.605Z,30.50
2023-01-10T09:17:23.521Z,28.77
2023-01-10T09:19:52.345Z,24.38
2023-01-10T09:22:20.184Z,22.60
2023-01-10T09:24:48.325Z,24.67
2023-01-10T09:27:16.233Z,29.88
2023-01-10T09:29:44.125Z,22.33
2023-01-10T09:32:13.311Z,21.75
2023-01-10T09:34:41.147Z,20.13
2023-01-10T09:37:09.049Z,22.42
2023-01-10T09:39:36.907Z,24.85
2023-01-10T09:42:11.535Z,20.98
2023-01-10T09:44:43.401Z,23.95
2023-01-10T09:47:22.432Z,19.88
2023-01-10T09:49:55.533Z,21.90
2023-01-10T09:52:24.667Z,18.73
2023-01-10T09:54:53.267Z,18.20
2023-01-10T09:57:22.039Z,20.63
2023-01-10T09:59:51.592Z,19.52
2023-01-10T10:02:25.143Z,23.13
2023-01-10T10:05:03.018Z,15.60
2023-01-10T10:07:30.870Z,16.58
2023-01-10T10:09:58.739Z,20.25
2023-01-10T10:12:29.279Z,21.95
2023-01-10T10:15:04.629Z,15.88
2023-01-10T10:17:38.686Z,18.52
2023-01-10T10:20:27.562Z,15.68
2023-01-10T10:23:02.749Z,16.02
2023-01-10T10:25:43.637Z,15.32
2023-01-10T10:28:20.035Z,17.30
2023-01-10T10:30:51.046Z,14.98
2023-01-10T10:33:51.201Z,15.30
2023-01-10T10:36:21.169Z,14.75
2023-01-10T10:38:49.073Z,13.15
2023-01-10T10:41:19.261Z,14.65
2023-01-10T10:43:47.720Z,13.65
2023-01-10T10:46:18.907Z,12.90
2023-01-10T10:48:51.730Z,12.77
2023-01-10T10:51:24.441Z,11.05
2023-01-10T10:53:52.280Z,11.60
2023-01-10T10:56:22.434Z,11.70
2023-01-10T10:58:51.276Z,18.55
2023-01-10T11:01:19.261Z,26.50
2023-01-10T11:03:48.376Z,28.52
2023-01-10T11:06:17.670Z,30.88
2023-01-10T11:08:47.014Z,24.77
2023-01-10T11:11:19.057Z,32.20
2023-01-10T11:13:48.877Z,28.00
2023-01-10T11:16:36.566Z,26.75
2023-01-10T11:19:12.451Z,27.20
2023-01-10T11:21:41.998Z,23.50
2023-01-10T11:24:20.688Z,25.35
2023-01-10T11:26:48.558Z,20.25
2023-01-10T11:29:18.362Z,24.20
2023-01-10T11:31:46.639Z,22.95
2023-01-10T11:34:22.248Z,23.08
2023-01-10T11:36:55.631Z,20.70
2023-01-10T11:39:23.526Z,18.75
2023-01-10T11:41:53.154Z,19.48
2023-01-10T11:44:25.291Z,21.25
2023-01-10T11:46:54.897Z,23.48
2023-01-10T11:49:27.701Z,21.02
2023-01-10T11:51:59.712Z,18.13
2023-01-10T11:54:28.317Z,17.73
2023-01-10T11:56:58.218Z,25.15
2023-01-10T11:59:26.155Z,19.95
2023-01-10T12:01:59.438Z,17.70
2023-01-10T12:04:28.670Z,21.58
2023-01-10T12:07:00.432Z,17.38
2023-01-10T12:09:39.887Z,17.52
2023-01-10T12:12:18.754Z,15.38
2023-01-10T12:14:46.826Z,17.95
2023-01-10T12:17:22.546Z,16.02
2023-01-10T12:19:53.130Z,18.60
2023-01-10T12:22:23.437Z,16.60
2023-01-10T12:24:51.306Z,16.70
2023-01-10T12:27:19.887Z,15.20
2023-01-10T12:29:50.636Z,16.90
2023-01-10T12:32:20.364Z,18.70
2023-01-10T12:34:50.565Z,17.80
2023-01-10T12:37:20.231Z,17.98
2023-01-10T12:39:50.340Z,17.35
2023-01-10T12:42:41.093Z,14.40
2023-01-10T12:45:11.298Z,18.63
2023-01-10T12:47:47.591Z,15.70
2023-01-10T12:50:16.876Z,15.27
2023-01-10T12:52:48.693Z,16.20
2023-01-10T12:55:18.321Z,12.05
2023-01-10T12:57:51.637Z,13.27
2023-01-10T13:00:24.214Z,13.43
2023-01-10T13:02:54.379Z,13.60
2023-01-10T13:05:23.278Z,13.80
2023-01-10T13:07:51.919Z,12.60
2023-01-10T13:10:22.045Z,10.40
2023-01-10T13:12:54.984Z,12.88
2023-01-10T13:15:24.278Z,13.18
2023-01-10T13:17:53.917Z,12.35
2023-01-10T13:20:38.141Z,12.80
2023-01-10T13:23:30.277Z,11.38
2023-01-10T13:26:02.274Z,13.45
2023-01-10T13:28:30.645Z,13.80
2023-01-10T13:31:01.037Z,11.65
2023-01-10T13:33:30.200Z,14.82
2023-01-10T13:35:58.743Z,13.45
2023-01-10T13:38:28.037Z,11.10
2023-01-10T13:41:02.368Z,13.00
2023-01-10T13:43:38.214Z,13.23
2023-01-10T13:46:35.085Z,12.82
2023-01-10T13:49:39.320Z,11.15
2023-01-10T13:52:40.267Z,9.77
2023-01-10T13:55:35.063Z,11.00
2023-01-10T13:58:05.639Z,11.38
2023-01-10T14:01:15.741Z,12.23
2023-01-10T14:03:51.857Z,10.77
2023-01-10T14:06:22.399Z,10.02
2023-01-10T14:08:52.207Z,11.00
2023-01-10T14:11:20.126Z,9.65
2023-01-10T14:13:50.589Z,11.95
2023-01-10T14:16:32.817Z,10.48
2023-01-10T14:19:00.760Z,13.57
2023-01-10T14:21:29.233Z,10.43
2023-01-10T14:23:57.592Z,13.95
2023-01-10T14:26:29.967Z,9.70
2023-01-10T14:29:00.263Z,9.93
2023-01-10T14:31:28.253Z,11.02
2023-01-10T14:33:56.239Z,10.60
2023-01-10T14:36:26.509Z,10.00
2023-01-10T14:38:57.040Z,12.27
2023-01-10T14:41:34.110Z,10.77
2023-01-10T14:44:11.112Z,10.40
2023-01-10T14:46:44.847Z,10.68
2023-01-10T14:49:26.813Z,10.55
2023-01-10T14:52:00.743Z,10.15
2023-01-10T14:54:29.490Z,10.98
2023-01-10T14:56:58.427Z,11.95
2023-01-10T14:59:28.562Z,11.10
2023-01-10T15:01:57.730Z,11.05
2023-01-10T15:04:27.863Z,11.77
2023-01-10T15:06:57.594Z,10.70
2023-01-10T15:09:25.713Z,9.10
2023-01-10T15:11:53.583Z,10.18
2023-01-10T15:14:23.353Z,9.95
2023-01-10T15:16:53.376Z,11.00
2023-01-10T15:19:22.151Z,10.95
2023-01-10T15:21:50.122Z,10.88
2023-01-10T15:24:25.442Z,9.68
2023-01-10T15:26:53.332Z,11.40
2023-01-10T15:29:23.227Z,11.13
2023-01-10T15:31:52.554Z,14.27
2023-01-10T15:34:21.675Z,17.42
2023-01-10T15:36:50.752Z,10.55
2023-01-10T15:39:20.984Z,12.57
2023-01-10T15:41:49.118Z,10.18
2023-01-10T15:44:24.298Z,12.05
2023-01-10T15:46:56.959Z,17.67
2023-01-10T15:49:25.276Z,9.48
2023-01-10T15:51:53.145Z,12.45
2023-01-10T15:54:31.647Z,9.52
2023-01-10T15:57:06.479Z,10.75
2023-01-10T15:59:37.042Z,12.20
2023-01-10T16:02:21.865Z,9.43
2023-01-10T16:04:50.186Z,14.63
2023-01-10T16:07:19.753Z,14.48
2023-01-10T16:09:55.556Z,16.65
2023-01-10T16:12:45.414Z,11.00
2023-01-10T16:15:19.158Z,9.63
2023-01-10T16:17:49.213Z,11.27
2023-01-10T16:20:17.944Z,8.90
2023-01-10T16:22:46.010Z,9.65
2023-01-10T16:25:15.573Z,11.15
2023-01-10T16:27:43.443Z,15.25
2023-01-10T16:30:24.511Z,9.93
2023-01-10T16:32:54.154Z,11.80
2023-01-10T16:35:22.202Z,9.63
2023-01-10T16:37:50.139Z,9.57
2023-01-10T16:40:41.330Z,11.65
2023-01-10T16:43:21.804Z,11.40
2023-01-10T16:45:50.495Z,11.13
2023-01-10T16:48:20.436Z,9.82
2023-01-10T16:50:48.730Z,10.90
2023-01-10T16:53:17.442Z,11.65
2023-01-10T16:55:46.063Z,13.05
2023-01-10T16:58:14.571Z,11.75
2023-01-10T17:00:44.056Z,13.07
2023-01-10T17:03:13.560Z,10.95
2023-01-10T17:05:42.951Z,12.38
2023-01-10T17:08:11.987Z,10.23
2023-01-10T17:10:39.989Z,12.05
2023-01-10T17:13:08.791Z,13.90
2023-01-10T17:15:36.730Z,10.10
2023-01-10T17:18:04.801Z,10.98
2023-01-10T17:20:32.690Z,10.93
2023-01-10T17:23:01.867Z,13.55
2023-01-10T17:25:29.779Z,15.00
2023-01-10T17:27:57.870Z,12.90
2023-01-10T17:30:25.803Z,14.88
2023-01-10T17:32:53.693Z,11.00
2023-01-10T17:35:22.348Z,15.32
2023-01-10T17:37:50.315Z,14.55
2023-01-10T17:40:19.864Z,19.42
2023-01-10T17:42:47.738Z,11.85
2023-01-10T17:45:15.858Z,11.32
2023-01-10T17:47:43.697Z,12.48
2023-01-10T17:50:11.545Z,10.32
2023-01-10T17:52:39.471Z,16.13
2023-01-10T17:55:08.453Z,12.10
2023-01-10T17:57:39.301Z,11.82
2023-01-10T18:00:08.478Z,15.27
2023-01-10T18:02:37.794Z,13.80
2023-01-10T18:05:06.345Z,13.43
2023-01-10T18:07:34.240Z,11.80
2023-01-10T18:10:02.156Z,12.25
2023-01-10T18:12:31.275Z,9.25
2023-01-10T18:15:01.134Z,10.93
2023-01-10T18:17:29.144Z,11.48
2023-01-10T18:19:57.135Z,11.05
2023-01-10T18:22:42.636Z,14.30
2023-01-10T18:25:10.739Z,10.43
2023-01-10T18:27:38.738Z,18.23
2023-01-10T18:30:09.497Z,12.05
2023-01-10T18:32:37.479Z,10.05
2023-01-10T18:35:06.080Z,10.98
2023-01-10T18:37:34.491Z,14.07
2023-01-10T18:40:02.454Z,14.23
2023-01-10T18:42:30.416Z,12.13
2023-01-10T18:44:58.302Z,9.32
2023-01-10T18:47:27.611Z,10.75
2023-01-10T18:49:55.570Z,10.52
2023-01-10T18:52:24.950Z,12.20
2023-01-10T18:54:52.987Z,12.82
2023-01-10T18:57:21.062Z,13.15
2023-01-10T18:59:49.029Z,10.52
2023-01-10T19:02:17.297Z,17.02
2023-01-10T19:04:46.646Z,11.77
2023-01-10T19:07:14.709Z,12.43
2023-01-10T19:09:42.692Z,12.70
2023-01-10T19:12:10.587Z,14.75
2023-01-10T19:14:38.816Z,10.85
2023-01-10T19:17:06.762Z,11.40
2023-01-10T19:19:34.651Z,11.77
2023-01-10T19:22:04.241Z,12.05
2023-01-10T19:24:37.521Z,13.57
2023-01-10T19:27:05.563Z,11.30
2023-01-10T19:29:34.865Z,10.73
2023-01-10T19:32:04.045Z,12.05
2023-01-10T19:34:31.944Z,14.82
2023-01-10T19:36:59.985Z,18.13
2023-01-10T19:39:29.425Z,12.80
2023-01-10T19:41:57.286Z,11.15
2023-01-10T19:44:25.312Z,13.15
2023-01-10T19:46:54.043Z,13.05
2023-01-10T19:49:23.280Z,11.00
2023-01-10T19:51:53.694Z,11.50
2023-01-10T19:54:21.873Z,10.55
2023-01-10T19:56:51.299Z,11.98
2023-01-10T19:59:20.163Z,10.73
2023-01-10T20:01:48.771Z,10.98
2023-01-10T20:04:17.131Z,12.07
2023-01-10T20:06:45.327Z,12.20
2023-01-10T20:09:13.652Z,12.07
2023-01-10T20:11:46.151Z,11.57
2023-01-10T20:14:17.080Z,11.15
2023-01-10T20:16:45.004Z,12.35
2023-01-10T20:19:13.027Z,12.32
2023-01-10T20:21:41.466Z,12.30
2023-01-10T20:24:11.471Z,12.30
2023-01-10T20:26:39.484Z,12.30
2023-01-10T20:29:07.574Z,15.15
2023-01-10T20:31:36.914Z,12.23
2023-01-10T20:34:04.929Z,13.80
2023-01-10T20:36:32.879Z,13.00
2023-01-10T20:39:00.799Z,12.65
2023-01-10T20:41:29.810Z,14.95
2023-01-10T20:43:57.947Z,12.75
2023-01-10T20:46:27.056Z,14.63
2023-01-10T20:48:56.884Z,22.33
2023-01-10T20:51:27.061Z,13.98
2023-01-10T20:53:54.953Z,15.75
2023-01-10T20:56:24.998Z,12.57
2023-01-10T20:58:53.091Z,11.77
2023-01-10T21:01:33.693Z,16.20
2023-01-10T21:04:04.169Z,11.43
2023-01-10T21:06:32.182Z,15.75
2023-01-10T21:09:00.565Z,16.65
2023-01-10T21:11:28.706Z,18.15
2023-01-10T21:13:56.571Z,15.23
2023-01-10T21:16:25.432Z,17.90
2023-01-10T21:18:53.535Z,20.25
2023-01-10T21:21:23.366Z,17.90
2023-01-10T21:23:51.299Z,22.63
2023-01-10T21:26:19.275Z,18.17
2023-01-10T21:28:47.507Z,20.75
2023-01-10T21:31:16.021Z,13.82
2023-01-10T21:33:43.996Z,14.30
2023-01-10T21:36:13.432Z,21.23
2023-01-10T21:38:43.700Z,17.15
2023-01-10T21:41:13.387Z,29.33
2023-01-10T21:43:44.278Z,15.55
2023-01-10T21:46:13.049Z,14.57
2023-01-10T21:48:41.088Z,21.48
2023-01-10T21:51:08.978Z,23.25
2023-01-10T21:53:37.073Z,15.48
2023-01-10T21:56:06.849Z,18.08
2023-01-10T21:58:34.719Z,17.75
2023-01-10T22:01:02.686Z,18.90
2023-01-10T22:03:31.690Z,20.05
2023-01-10T22:06:01.096Z,18.30
2023-01-10T22:08:28.975Z,20.38
2023-01-10T22:10:56.853Z,19.27
2023-01-10T22:13:26.933Z,14.20
2023-01-10T22:15:58.899Z,15.35
2023-01-10T22:18:26.847Z,15.90
2023-01-10T22:20:55.632Z,18.38
2023-01-10T22:23:23.587Z,14.25
2023-01-10T22:26:00.658Z,15.10
2023-01-10T22:28:29.932Z,14.15
2023-01-10T22:30:57.912Z,16.52
2023-01-10T22:33:26.477Z,14.82
2023-01-10T22:35:54.389Z,12.40
2023-01-10T22:38:22.289Z,14.95
2023-01-10T22:40:50.359Z,12.93
2023-01-10T22:43:18.244Z,17.08
2023-01-10T22:45:47.559Z,15.18
2023-01-10T22:48:15.467Z,14.45
2023-01-10T22:50:48.714Z,15.13
2023-01-10T22:53:16.676Z,13.57
2023-01-10T22:55:44.522Z,13.45
2023-01-10T22:58:12.403Z,14.32
2023-01-10T23:00:40.290Z,11.75
2023-01-10T23:03:09.530Z,14.32
2023-01-10T23:05:37.398Z,14.63
2023-01-10T23:08:05.640Z,14.98
2023-01-10T23:10:33.538Z,12.48
2023-01-10T23:13:02.086Z,13.38
2023-01-10T23:15:30.676Z,13.55
2023-01-10T23:17:58.553Z,14.65
2023-01-10T23:20:27.811Z,15.52
2023-01-10T23:22:55.678Z,13.57
2023-01-10T23:25:23.541Z,14.25
2023-01-10T23:27:51.443Z,12.43
2023-01-10T23:30:19.557Z,12.50
2023-01-10T23:32:47.388Z,12.32
2023-01-10T23:35:15.303Z,11.80
2023-01-10T23:37:44.613Z,11.98
2023-01-10T23:40:13.518Z,12.05
2023-01-10T23:42:41.387Z,13.32
2023-01-10T23:45:10.503Z,13.07
2023-01-10T23:47:38.369Z,13.35
2023-01-10T23:50:07.127Z,10.82
2023-01-10T23:52:35.006Z,14.18
2023-01-10T23:55:04.283Z,12.93
2023-01-10T23:57:32.119Z,14.05
